Terminal Aerodrome Forecast
Issued by NWS Atlanta, GA

Home | Current Version | Previous Version | Text Only | Print | Product List | Glossary On
Versions: 1 2 3 4 5 6 7 8 9 10 11 12 13 14 15 16 17 18 19 20 21 22 23 24 25 26 27 28 29 30 31 32 33
204
FTUS42 KFFC 230647 AAA
TAFCSG
TAF AMD
KCSG 230647Z 2307/2406 27010G20KT P6SM -SHRA OVC015
      TEMPO 2307/2311 4SM -SHRA BKN008 OVC015
     FM231200 31014G25KT P6SM SCT008 OVC015
     FM231700 32018G30KT P6SM BKN025
     FM240000 32015G25KT P6SM BKN025
     FM240300 32012KT P6SM BKN025=

USA.gov is the U.S. government's official web portal to all federal, state and local government web resources and services.